Time;durP1;ratioP1;P1;durP2;ratioP2;P2;SDS_P1;SDS_P2;PMS_P1;PMS_P2;Temp;Humidity;BMP_temperature;BMP_pressure;BME280_temperature;BME280_humidity;BME280_pressure;Samples;Min_cycle;Max_cycle;Signal;HPM_P1;HPM_P2
2022/06/04 00:00:55;;;;;;;10.55;4.35;;;;;;;13.42;62.39;100080.91;5074039;28;20044;-86
2022/06/04 00:03:22;;;;;;;8.23;4.40;;;;;;;13.46;62.32;100088.19;5073931;28;20437;-85
2022/06/04 00:05:54;;;;;;;15.45;4.53;;;;;;;13.45;62.86;100083.03;5074734;28;20040;-84
2022/06/04 00:08:20;;;;;;;12.60;4.15;;;;;;;13.26;62.99;100064.81;5074065;28;20051;-86
2022/06/04 00:16:22;;;;;;;10.30;4.25;;;;;;;13.15;63.62;100066.97;5076841;28;20036;-85
2022/06/04 00:18:49;;;;;;;10.50;4.60;;;;;;;13.20;64.30;100079.75;5071928;28;20144;-86
2022/06/04 00:21:15;;;;;;;8.70;4.93;;;;;;;13.18;64.04;100082.00;5074920;28;20452;-86
2022/06/04 00:23:42;;;;;;;10.00;4.13;;;;;;;13.05;64.64;100071.91;5073302;28;20056;-88
2022/06/04 00:26:13;;;;;;;8.85;4.03;;;;;;;13.06;64.69;100081.75;5077478;28;20047;-85
2022/06/04 00:28:40;;;;;;;10.38;4.68;;;;;;;13.03;64.80;100079.63;5070367;28;20064;-86
2022/06/04 00:31:06;;;;;;;;;;;;;;;13.07;64.80;100075.94;5080102;28;20093;-86
2022/06/04 00:33:32;;;;;;;8.27;4.50;;;;;;;13.03;65.22;100083.16;5072492;28;20308;-88
2022/06/04 00:36:00;;;;;;;8.65;4.53;;;;;;;13.02;65.11;100087.03;5076303;28;20040;-88
2022/06/04 00:38:29;;;;;;;12.45;4.60;;;;;;;12.93;65.13;100073.25;5071990;28;20040;-84
2022/06/04 00:41:26;;;;;;;16.05;4.65;;;;;;;12.94;65.27;100088.56;5072305;28;20382;-89
2022/06/04 00:43:57;;;;;;;13.85;4.57;;;;;;;12.86;65.43;100077.53;5073194;28;20696;-85
2022/06/04 00:46:41;;;;;;;14.35;4.50;;;;;;;12.85;65.54;100084.97;5074210;28;20048;-85
2022/06/04 00:49:16;;;;;;;9.02;4.00;;;;;;;12.73;65.71;100065.47;5091897;28;20039;-85
2022/06/04 00:51:46;;;;;;;14.23;4.50;;;;;;;12.79;65.21;100082.66;5074956;28;20055;-89
2022/06/04 00:54:13;;;;;;;13.70;4.60;;;;;;;12.78;65.66;100092.81;5070757;28;20477;-87
2022/06/04 00:56:52;;;;;;;8.90;4.50;;;;;;;12.74;65.99;100088.22;5083258;28;20046;-86
2022/06/04 00:59:33;;;;;;;6.35;4.03;;;;;;;12.69;65.82;100087.22;5061664;28;20075;-85
2022/06/04 01:02:13;;;;;;;12.50;4.35;;;;;;;12.71;65.84;100086.91;5070315;28;20040;-85
2022/06/04 01:05:21;;;;;;;12.60;4.85;;;;;;;12.66;66.10;100093.31;5074905;28;20028;-84
2022/06/04 01:08:25;;;;;;;15.35;4.50;;;;;;;12.60;66.84;100082.78;5067564;28;20110;-85
2022/06/04 01:11:14;;;;;;;9.73;4.53;;;;;;;12.68;67.69;100093.84;5072019;28;20506;-85
2022/06/04 01:13:43;;;;;;;17.33;5.15;;;;;;;12.62;67.01;100088.78;5065142;28;20386;-85
2022/06/04 01:16:12;;;;;;;12.52;5.07;;;;;;;12.60;67.69;100091.81;5080189;28;20036;-88
2022/06/04 01:19:06;;;;;;;11.65;5.13;;;;;;;12.58;67.17;100094.06;5091977;28;20071;-84
2022/06/04 01:21:59;;;;;;;16.33;5.10;;;;;;;12.51;67.64;100092.84;5090164;28;20040;-86
2022/06/04 01:24:41;;;;;;;18.50;5.47;;;;;;;12.41;67.58;100091.13;5081899;28;20162;-85
2022/06/04 01:27:38;;;;;;;14.75;5.03;;;;;;;12.46;68.51;100096.50;5080436;28;20032;-86
2022/06/04 01:30:25;;;;;;;19.75;5.53;;;;;;;12.37;67.61;100090.13;5084367;28;20052;-86
2022/06/04 01:32:56;;;;;;;;;;;;;;;12.44;67.55;100105.03;5079266;28;20516;-84
2022/06/04 01:35:30;;;;;;;11.57;4.40;;;;;;;12.29;66.80;100085.38;5063971;28;19928;-87
2022/06/04 01:38:20;;;;;;;7.82;4.60;;;;;;;12.49;66.98;100112.34;5080207;28;20028;-85
2022/06/04 01:41:03;;;;;;;9.98;5.03;;;;;;;12.47;67.35;100109.09;5084267;28;20052;-84
2022/06/04 01:43:36;;;;;;;17.33;5.35;;;;;;;12.44;67.21;100104.22;5086071;28;20067;-84
2022/06/04 01:46:16;;;;;;;14.27;4.57;;;;;;;12.43;67.67;100100.69;5099497;28;20041;-83
2022/06/04 01:48:49;;;;;;;19.08;5.45;;;;;;;12.42;66.75;100092.78;5082003;28;20588;-84
2022/06/04 01:51:22;;;;;;;14.98;4.85;;;;;;;12.48;66.64;100085.22;5081944;28;20096;-82
2022/06/04 01:53:53;;;;;;;7.88;4.18;;;;;;;12.59;66.20;100103.91;5079578;28;20048;-84
2022/06/04 01:56:25;;;;;;;13.43;5.10;;;;;;;12.40;66.60;100082.09;5077306;28;20036;-83
2022/06/04 01:58:58;;;;;;;11.15;4.30;;;;;;;12.60;66.48;100112.94;5054518;28;20045;-84
2022/06/04 02:01:29;;;;;;;13.35;4.00;;;;;;;12.63;66.29;100106.84;5071994;28;20040;-83
2022/06/04 02:04:12;;;;;;;17.25;4.20;;;;;;;12.62;66.38;100103.31;5071342;28;20477;-86
2022/06/04 02:09:53;;;;;;;9.82;4.00;;;;;;;12.67;66.29;100105.09;5072685;28;20087;-89
2022/06/04 02:12:20;;;;;;;14.35;3.85;;;;;;;12.64;66.02;100102.97;5071334;28;20409;-87
2022/06/04 02:14:47;;;;;;;7.57;4.00;;;;;;;12.77;66.21;100113.13;5072019;28;20533;-84
2022/06/04 02:17:19;;;;;;;13.38;4.43;;;;;;;12.83;66.33;100122.88;5071674;28;20417;-84
2022/06/04 02:19:48;;;;;;;10.82;4.18;;;;;;;12.84;66.48;100113.50;5072067;28;20055;-89
2022/06/04 02:22:17;;;;;;;9.13;4.00;;;;;;;12.70;65.92;100079.81;5071857;28;20040;-85
2022/06/04 02:24:44;;;;;;;8.52;3.78;;;;;;;12.93;66.31;100110.84;5071422;28;20048;-87
2022/06/04 02:27:10;;;;;;;13.00;4.32;;;;;;;12.92;66.05;100101.00;5071740;28;20505;-89
2022/06/04 02:29:38;;;;;;;6.72;4.50;;;;;;;12.91;64.75;100097.44;5071938;28;20039;-88
2022/06/04 02:32:07;;;;;;;10.13;4.25;;;;;;;13.03;64.28;100107.88;5071219;28;20115;-84
2022/06/04 02:35:11;;;;;;;8.63;4.00;;;;;;;13.03;64.99;100104.31;5071611;28;20033;-84
2022/06/04 02:37:46;;;;;;;7.05;3.83;;;;;;;13.01;64.71;100101.06;5071558;28;20052;-84
2022/06/04 02:40:18;;;;;;;12.95;4.07;;;;;;;13.14;64.21;100113.94;5071415;28;20045;-85
2022/06/04 02:42:54;;;;;;;7.55;3.55;;;;;;;13.20;64.05;100120.13;5051518;28;20529;-83
2022/06/04 02:45:42;;;;;;;14.77;4.25;;;;;;;13.28;64.40;100122.97;5062668;28;20053;-88
2022/06/04 02:48:15;;;;;;;8.40;3.90;;;;;;;13.33;63.26;100109.09;5071193;28;20040;-83
2022/06/04 02:50:44;;;;;;;10.02;3.80;;;;;;;13.31;62.97;100105.88;5070971;28;20059;-83
2022/06/04 02:53:11;;;;;;;8.18;3.17;;;;;;;13.47;62.28;100117.28;5069997;28;20040;-89
2022/06/04 02:55:47;;;;;;;9.20;3.60;;;;;;;13.48;62.51;100096.94;5071315;28;20131;-84
2022/06/04 02:58:18;;;;;;;;;;;;;;;13.56;62.30;100114.59;5071791;28;20048;-84
2022/06/04 03:00:48;;;;;;;9.00;3.63;;;;;;;13.52;61.93;100108.94;5071482;28;20300;-84
2022/06/04 03:03:14;;;;;;;8.18;3.10;;;;;;;13.49;61.94;100101.31;5071096;28;20040;-85
2022/06/04 03:05:57;;;;;;;10.07;3.23;;;;;;;13.58;62.73;100095.88;5070291;28;20460;-88
2022/06/04 03:08:28;;;;;;;7.40;3.45;;;;;;;13.72;62.46;100110.34;5069907;28;20056;-83
2022/06/04 03:10:54;;;;;;;8.18;3.20;;;;;;;13.75;61.85;100120.72;5053967;28;20040;-87
2022/06/04 03:13:21;;;;;;;10.00;3.45;;;;;;;13.75;61.94;100100.66;5070976;28;20036;-84
2022/06/04 03:15:48;;;;;;;8.48;3.38;;;;;;;13.76;62.07;100089.34;5069675;28;20133;-83
2022/06/04 03:18:16;;;;;;;7.72;3.28;;;;;;;13.72;61.58;100091.09;5070743;28;20139;-84
2022/06/04 03:20:43;;;;;;;9.20;3.67;;;;;;;13.83;61.07;100100.69;5071184;28;20048;-86
2022/06/04 03:23:09;;;;;;;13.55;3.38;;;;;;;13.98;61.56;100115.19;5069727;28;20047;-84
2022/06/04 03:25:38;;;;;;;8.95;3.33;;;;;;;14.03;61.38;100128.78;5072935;28;20044;-84
2022/06/04 03:28:07;;;;;;;9.13;4.15;;;;;;;14.13;61.15;100123.00;5073405;28;20068;-88
2022/06/04 03:30:38;;;;;;;7.15;3.47;;;;;;;14.00;60.63;100099.97;5074558;28;20127;-83
2022/06/04 03:33:06;;;;;;;7.70;3.65;;;;;;;14.24;61.53;100127.09;5073517;28;20036;-83
2022/06/04 03:35:32;;;;;;;7.07;3.60;;;;;;;14.25;61.05;100134.22;5073837;28;20048;-85
2022/06/04 03:37:59;;;;;;;;;;;;;;;14.33;61.73;100135.38;5073496;28;20048;-83
2022/06/04 03:40:25;;;;;;;9.48;3.70;;;;;;;14.27;61.46;100118.22;5074647;28;19973;-85
2022/06/04 03:42:53;;;;;;;7.43;3.70;;;;;;;14.29;61.15;100110.44;5074276;28;20123;-87
2022/06/04 03:45:19;;;;;;;7.23;3.17;;;;;;;14.36;60.97;100128.41;5073263;28;20541;-85
2022/06/04 03:47:45;;;;;;;7.00;3.70;;;;;;;14.40;60.72;100118.41;5074180;28;20792;-84
2022/06/04 03:50:15;;;;;;;11.25;3.45;;;;;;;14.52;61.32;100135.16;5074053;28;20528;-84
2022/06/04 03:52:43;;;;;;;9.18;3.50;;;;;;;14.58;60.65;100136.63;5074357;28;20036;-85
2022/06/04 03:55:09;;;;;;;;;;;;;;;14.61;60.82;100136.00;5074397;28;20032;-89
2022/06/04 03:57:39;;;;;;;9.55;3.42;;;;;;;14.64;61.02;100137.28;5073703;28;20370;-84
2022/06/04 04:00:07;;;;;;;8.40;3.65;;;;;;;14.69;60.38;100137.94;5074163;28;20448;-84
2022/06/04 04:02:43;;;;;;;7.15;3.58;;;;;;;14.68;60.16;100122.56;5072951;28;20123;-86
2022/06/04 04:05:13;;;;;;;7.07;3.70;;;;;;;14.88;60.60;100140.41;5073644;28;20465;-89
2022/06/04 04:07:40;;;;;;;10.35;3.72;;;;;;;14.97;60.96;100137.69;5073486;28;20047;-84
2022/06/04 04:10:08;;;;;;;9.00;3.22;;;;;;;14.93;60.66;100128.41;5073120;28;20067;-85
2022/06/04 04:12:34;;;;;;;5.93;3.20;;;;;;;14.98;59.97;100137.34;5074021;28;20040;-84
2022/06/04 04:15:03;;;;;;;7.93;3.83;;;;;;;15.01;59.57;100133.94;5055973;28;20044;-84
2022/06/04 04:17:30;;;;;;;9.75;3.20;;;;;;;15.04;59.75;100121.47;5073101;28;20059;-84
2022/06/04 04:19:56;;;;;;;;;;;;;;;15.20;59.45;100133.66;5074044;28;20044;-84
2022/06/04 04:22:22;;;;;;;4.63;3.10;;;;;;;15.14;59.12;100112.91;5074786;28;19925;-87
2022/06/04 04:24:49;;;;;;;9.98;3.25;;;;;;;15.21;59.05;100109.66;5052348;28;20524;-85
2022/06/04 04:27:15;;;;;;;8.57;3.40;;;;;;;15.37;57.24;100129.28;5072600;28;20036;-83
2022/06/04 04:29:43;;;;;;;12.85;3.63;;;;;;;15.33;57.43;100115.34;5073733;28;20072;-84
2022/06/04 04:32:09;;;;;;;17.10;3.55;;;;;;;15.44;57.96;100124.06;5071702;28;20040;-83
2022/06/04 04:34:35;;;;;;;16.35;3.65;;;;;;;15.60;58.77;100124.38;5073899;28;20041;-84
2022/06/04 04:37:01;;;;;;;13.68;3.70;;;;;;;15.64;57.27;100139.13;5071334;28;20048;-88
2022/06/04 04:39:28;;;;;;;9.68;4.18;;;;;;;15.76;56.78;100136.53;5068815;28;20047;-87
2022/06/04 04:41:54;;;;;;;8.55;3.13;;;;;;;15.73;56.87;100129.72;5072354;28;20036;-87
2022/06/04 04:44:21;;;;;;;7.80;2.83;;;;;;;15.69;55.63;100114.16;5072384;28;20047;-84
2022/06/04 04:46:50;;;;;;;6.20;3.17;;;;;;;15.88;55.91;100138.59;5071140;28;20437;-83
2022/06/04 04:49:18;;;;;;;10.63;2.97;;;;;;;15.89;56.26;100129.19;5068759;28;20039;-87
2022/06/04 04:51:44;;;;;;;4.47;2.95;;;;;;;15.92;56.03;100132.09;5072201;28;20037;-84
2022/06/04 04:54:10;;;;;;;10.07;2.88;;;;;;;16.02;55.72;100135.66;5072223;28;20032;-87
2022/06/04 04:56:40;;;;;;;6.40;2.75;;;;;;;16.13;55.32;100140.50;5073827;28;20145;-88
2022/06/04 04:59:06;;;;;;;;;;;;;;;16.19;53.90;100138.34;5069441;28;20036;-86
2022/06/04 05:01:33;;;;;;;5.40;2.97;;;;;;;16.31;55.00;100143.19;5073979;28;20026;-87
2022/06/04 05:04:03;;;;;;;7.68;3.00;;;;;;;16.38;55.66;100137.94;5074433;28;20060;-86
2022/06/04 05:06:29;;;;;;;13.70;3.20;;;;;;;16.32;55.74;100123.50;5072352;28;20083;-87
2022/06/04 05:08:56;;;;;;;9.63;2.95;;;;;;;16.48;54.82;100126.53;5067124;28;20051;-86
2022/06/04 05:11:27;;;;;;;13.55;3.17;;;;;;;16.52;54.45;100140.47;5079177;28;20068;-83
2022/06/04 05:13:54;;;;;;;5.95;2.72;;;;;;;16.57;54.27;100137.53;5074840;28;20476;-87
2022/06/04 05:16:23;;;;;;;12.55;3.80;;;;;;;16.68;54.05;100145.09;5073466;28;20038;-86
2022/06/04 05:18:49;;;;;;;11.18;3.15;;;;;;;16.75;55.17;100139.06;5079952;28;20462;-87
2022/06/04 05:21:24;;;;;;;8.77;3.23;;;;;;;16.85;53.13;100148.91;5079055;28;20036;-87
2022/06/04 05:23:54;;;;;;;12.15;3.60;;;;;;;16.84;53.67;100130.75;5074775;28;20035;-87
2022/06/04 05:26:21;;;;;;;13.38;2.83;;;;;;;16.86;52.66;100131.22;5075251;28;20548;-86
2022/06/04 05:28:47;;;;;;;9.15;3.20;;;;;;;17.03;52.50;100155.97;5079651;28;20039;-89
2022/06/04 05:31:13;;;;;;;9.57;3.08;;;;;;;17.03;53.03;100149.63;5071984;28;20032;-88
2022/06/04 05:33:41;;;;;;;10.10;3.38;;;;;;;17.12;53.18;100150.38;5070972;28;20040;-86
2022/06/04 05:36:08;;;;;;;19.13;3.83;;;;;;;17.23;52.67;100145.25;5052822;28;20040;-86
2022/06/04 05:38:34;;;;;;;7.50;2.87;;;;;;;17.12;50.87;100123.56;5071062;28;20294;-88
2022/06/04 05:41:03;;;;;;;12.38;2.97;;;;;;;17.29;51.90;100149.44;5071114;28;20036;-86
2022/06/04 05:43:30;;;;;;;10.82;2.85;;;;;;;17.32;50.49;100146.00;5070101;28;20127;-87
2022/06/04 05:46:06;;;;;;;12.77;2.83;;;;;;;17.37;50.89;100151.31;5073620;28;20127;-87
2022/06/04 05:48:41;;;;;;;18.35;4.15;;;;;;;17.47;50.37;100141.78;5070882;28;20040;-77
2022/06/04 05:51:11;;;;;;;8.50;3.05;;;;;;;17.54;51.01;100139.28;5070621;28;20052;-79
2022/06/04 05:53:39;;;;;;;6.90;2.92;;;;;;;17.58;50.31;100135.53;5070472;28;20505;-78
2022/06/04 05:56:19;;;;;;;8.25;2.63;;;;;;;17.61;51.01;100122.94;5070766;28;20405;-79
2022/06/04 05:58:50;;;;;;;9.38;2.92;;;;;;;17.72;50.44;100137.19;5070368;28;20047;-86
2022/06/04 06:01:18;;;;;;;10.95;3.08;;;;;;;17.75;50.29;100140.06;5070492;28;20450;-78
2022/06/04 06:03:45;;;;;;;9.50;3.08;;;;;;;17.92;51.57;100130.81;5070234;28;20078;-76
2022/06/04 06:06:18;;;;;;;5.53;2.50;;;;;;;17.93;46.54;100132.41;5070247;28;20050;-78
2022/06/04 06:08:44;;;;;;;8.88;2.33;;;;;;;17.90;47.93;100132.28;5065149;28;20127;-78
2022/06/04 06:11:13;;;;;;;8.07;2.53;;;;;;;17.90;47.68;100133.09;5068206;28;20553;-76
2022/06/04 06:13:41;;;;;;;9.07;2.88;;;;;;;17.84;48.04;100129.72;5068570;28;20051;-79
2022/06/04 06:16:14;;;;;;;10.27;2.80;;;;;;;17.90;49.61;100124.81;5070056;28;20416;-76
2022/06/04 06:18:42;;;;;;;11.68;2.85;;;;;;;17.90;46.92;100126.75;5069885;28;20149;-76
2022/06/04 06:21:12;;;;;;;5.82;2.50;;;;;;;17.88;47.79;100129.88;5070332;28;20051;-77
2022/06/04 06:23:39;;;;;;;7.05;2.65;;;;;;;17.94;48.77;100131.25;5070447;28;20127;-78
2022/06/04 06:26:28;;;;;;;18.23;3.40;;;;;;;18.03;50.41;100120.91;5070434;28;20075;-80
2022/06/04 06:28:56;;;;;;;9.77;3.22;;;;;;;17.96;48.49;100114.31;5070310;28;20056;-76
2022/06/04 06:31:24;;;;;;;;;;;;;;;18.10;49.75;100125.88;5070751;28;20049;-75
2022/06/04 06:33:51;;;;;;;7.50;2.75;;;;;;;18.27;49.55;100122.88;5071647;28;19924;-78
2022/06/04 06:36:20;;;;;;;7.72;2.40;;;;;;;18.37;49.33;100105.00;5070160;28;20047;-88
2022/06/04 06:38:49;;;;;;;8.00;2.75;;;;;;;18.49;49.78;100105.03;5069956;28;20036;-76
2022/06/04 06:41:17;;;;;;;9.75;3.50;;;;;;;18.43;47.66;100109.16;5070410;28;20044;-74
2022/06/04 06:43:46;;;;;;;10.32;3.15;;;;;;;18.47;48.73;100090.72;5070549;28;20175;-75
2022/06/04 06:46:20;;;;;;;9.10;3.15;;;;;;;18.65;48.66;100094.06;5069959;28;20517;-76
2022/06/04 06:48:50;;;;;;;7.20;2.78;;;;;;;18.78;48.09;100106.75;5067567;28;20405;-76
2022/06/04 06:51:26;;;;;;;15.85;3.20;;;;;;;18.75;47.49;100117.72;5070027;28;20047;-78
2022/06/04 06:53:55;;;;;;;4.63;2.88;;;;;;;18.66;47.62;100100.41;5069820;28;20064;-79
2022/06/04 06:56:24;;;;;;;12.10;3.05;;;;;;;18.87;49.16;100114.13;5070013;28;20067;-78
2022/06/04 06:58:51;;;;;;;5.22;2.75;;;;;;;18.81;47.51;100107.19;5069055;28;20136;-77
2022/06/04 07:01:17;;;;;;;8.53;3.20;;;;;;;18.77;46.95;100099.63;5073690;28;20119;-77
2022/06/04 07:03:44;;;;;;;9.88;2.97;;;;;;;18.92;47.97;100111.91;5074030;28;20040;-75
2022/06/04 07:06:13;;;;;;;9.98;2.70;;;;;;;18.99;48.49;100100.25;5058369;28;20040;-81
2022/06/04 07:08:41;;;;;;;8.45;3.25;;;;;;;19.21;48.12;100119.13;5073480;28;20044;-75
2022/06/04 07:11:07;;;;;;;13.63;3.33;;;;;;;19.26;47.79;100106.97;5073374;28;20043;-78
2022/06/04 07:13:33;;;;;;;12.50;3.05;;;;;;;19.27;46.32;100110.53;5069546;28;20032;-76
2022/06/04 07:15:59;;;;;;;8.10;3.17;;;;;;;19.43;46.71;100114.97;5073562;28;20059;-74
2022/06/04 07:18:26;;;;;;;9.35;3.20;;;;;;;19.46;45.38;100097.63;5073105;28;20136;-74
2022/06/04 07:20:53;;;;;;;8.10;3.05;;;;;;;19.50;45.11;100108.84;5073539;28;20048;-74
2022/06/04 07:23:19;;;;;;;5.47;3.03;;;;;;;19.61;47.32;100096.09;5073165;28;20151;-74
2022/06/04 07:25:46;;;;;;;7.17;3.67;;;;;;;19.91;46.70;100093.75;5071848;28;20477;-74
2022/06/04 07:28:14;;;;;;;7.00;3.13;;;;;;;19.86;45.57;100109.84;5073052;28;20064;-74
2022/06/04 07:30:40;;;;;;;7.63;3.17;;;;;;;20.04;46.25;100110.31;5072770;28;20531;-76
2022/06/04 07:33:06;;;;;;;6.70;3.20;;;;;;;19.93;44.42;100083.09;5072408;28;20048;-74
2022/06/04 07:35:32;;;;;;;12.40;4.43;;;;;;;20.18;45.13;100094.00;5072768;28;20043;-76
2022/06/04 07:37:59;;;;;;;7.43;3.30;;;;;;;20.25;43.93;100096.16;5073041;28;20047;-75
2022/06/04 07:40:26;;;;;;;15.63;3.53;;;;;;;20.27;44.07;100097.41;5069183;28;20040;-73
2022/06/04 07:42:52;;;;;;;8.80;3.38;;;;;;;20.29;43.17;100088.72;5072921;28;20495;-75
2022/06/04 07:45:18;;;;;;;6.30;3.40;;;;;;;20.24;43.96;100095.34;5072975;28;20040;-75
2022/06/04 07:47:46;;;;;;;6.68;2.90;;;;;;;20.08;43.20;100095.34;5072765;28;20067;-75
2022/06/04 07:50:13;;;;;;;10.10;3.43;;;;;;;20.15;43.94;100091.94;5076735;28;20272;-75
2022/06/04 07:52:40;;;;;;;10.45;3.10;;;;;;;20.26;43.55;100081.91;5072882;28;20304;-74
2022/06/04 07:55:07;;;;;;;7.87;3.37;;;;;;;20.17;43.19;100090.44;5072565;28;20043;-75
2022/06/04 07:57:36;;;;;;;8.15;3.38;;;;;;;20.09;43.18;100085.06;5072824;28;20075;-76
2022/06/04 08:00:05;;;;;;;9.95;2.85;;;;;;;20.26;44.53;100087.47;5072681;28;20050;-75
2022/06/04 08:02:38;;;;;;;6.35;2.67;;;;;;;20.39;43.09;100079.84;5072832;28;20032;-75
2022/06/04 08:05:05;;;;;;;11.52;2.88;;;;;;;20.60;43.79;100083.16;5072369;28;20037;-74
2022/06/04 08:07:31;;;;;;;11.60;3.45;;;;;;;20.65;41.70;100073.72;5072438;28;20052;-77
2022/06/04 08:09:57;;;;;;;10.23;2.70;;;;;;;20.61;42.00;100070.88;5072450;28;20155;-76
2022/06/04 08:12:23;;;;;;;6.03;3.10;;;;;;;20.48;42.33;100085.22;5072075;28;20131;-80
2022/06/04 08:14:50;;;;;;;10.85;3.35;;;;;;;20.38;41.48;100081.00;5071622;28;20064;-74
2022/06/04 08:17:16;;;;;;;5.10;2.97;;;;;;;20.49;41.39;100073.72;5071753;28;20127;-80
2022/06/04 08:19:44;;;;;;;6.88;2.95;;;;;;;20.69;41.75;100071.81;5071413;28;20040;-79
2022/06/04 08:22:11;;;;;;;3.45;2.67;;;;;;;20.78;41.85;100075.22;5072064;28;20394;-75
2022/06/04 08:24:36;;;;;;;;;;;;;;;20.75;43.81;100078.72;5073444;28;20058;-75
2022/06/04 08:27:02;;;;;;;5.18;2.60;;;;;;;20.63;40.59;100078.84;5072137;28;20392;-74
2022/06/04 08:29:37;;;;;;;6.05;2.85;;;;;;;20.72;41.67;100073.06;5071912;28;20040;-74
2022/06/04 08:32:05;;;;;;;12.25;3.63;;;;;;;20.80;43.00;100070.09;5071506;28;20113;-77
2022/06/04 08:34:32;;;;;;;12.77;3.78;;;;;;;20.81;41.80;100077.28;5072044;28;20032;-73
2022/06/04 08:36:59;;;;;;;10.73;3.30;;;;;;;20.85;41.37;100078.16;5071708;28;20048;-77
2022/06/04 08:39:27;;;;;;;4.95;2.90;;;;;;;20.86;41.27;100071.44;5071576;28;20072;-75
2022/06/04 08:42:11;;;;;;;11.27;3.03;;;;;;;20.96;41.65;100070.06;5071588;28;20059;-76
2022/06/04 08:44:41;;;;;;;7.38;2.97;;;;;;;21.10;42.20;100066.75;5071100;28;20036;-78
2022/06/04 08:47:21;;;;;;;39.90;4.82;;;;;;;21.05;39.05;100067.84;5068373;28;20028;-78
2022/06/04 08:49:52;;;;;;;6.70;2.67;;;;;;;21.02;40.00;100070.56;5071322;28;20060;-83
2022/06/04 08:52:35;;;;;;;13.55;3.00;;;;;;;20.91;39.01;100062.00;5071996;28;20044;-77
2022/06/04 08:58:40;;;;;;;37.60;4.70;;;;;;;20.82;40.41;100045.53;5072270;28;20045;-80
2022/06/04 09:01:14;;;;;;;11.88;3.05;;;;;;;20.80;41.75;100052.63;5058921;28;20055;-85
2022/06/04 09:04:10;;;;;;;9.90;2.90;;;;;;;20.88;40.97;100055.19;5068362;28;20093;-80
2022/06/04 09:06:48;;;;;;;6.38;2.83;;;;;;;20.94;40.31;100052.94;5071129;28;20048;-82
2022/06/04 09:09:25;;;;;;;7.90;3.28;;;;;;;20.96;39.71;100055.31;5077462;28;20044;-81
2022/06/04 09:12:08;;;;;;;9.75;3.30;;;;;;;20.90;40.36;100048.47;5070215;28;20044;-74
2022/06/04 09:14:58;;;;;;;11.27;3.72;;;;;;;20.71;39.74;100038.13;5071370;28;20040;-75
2022/06/04 09:17:37;;;;;;;19.88;4.45;;;;;;;20.62;40.04;100044.69;5071826;28;20414;-75
2022/06/04 09:20:20;;;;;;;11.27;3.53;;;;;;;20.56;40.71;100043.38;5070087;28;20045;-78
2022/06/04 09:22:50;;;;;;;9.80;3.75;;;;;;;20.44;39.82;100037.91;5070118;28;20040;-75
2022/06/04 09:25:25;;;;;;;8.27;3.75;;;;;;;20.55;41.16;100032.63;5074985;28;20857;-74
2022/06/04 09:27:58;;;;;;;8.30;2.90;;;;;;;20.77;40.82;100036.69;5071136;28;20078;-74
2022/06/04 09:30:38;;;;;;;7.07;2.83;;;;;;;20.89;38.54;100033.75;5071092;28;20070;-77
2022/06/04 09:33:20;;;;;;;10.85;3.30;;;;;;;21.13;40.33;100027.13;5070426;28;20028;-76
2022/06/04 09:35:46;;;;;;;13.15;3.42;;;;;;;21.17;39.60;100016.84;5070989;28;20475;-82
2022/06/04 09:38:31;;;;;;;11.18;3.13;;;;;;;21.32;39.71;100012.38;5060551;28;20044;-75
2022/06/04 09:41:18;;;;;;;9.55;3.00;;;;;;;21.52;40.13;100019.56;5071437;28;20044;-78
2022/06/04 09:43:46;;;;;;;13.65;3.33;;;;;;;21.66;40.05;100032.13;5070572;28;20056;-76
2022/06/04 09:46:13;;;;;;;6.90;2.85;;;;;;;21.72;38.95;100023.09;5071720;28;20041;-79
2022/06/04 09:48:50;;;;;;;11.95;2.90;;;;;;;21.87;37.50;100023.31;5071401;28;20029;-75
2022/06/04 09:51:28;;;;;;;6.90;2.20;;;;;;;21.77;35.41;100021.97;5071964;28;20048;-75
2022/06/04 09:54:04;;;;;;;8.13;3.10;;;;;;;21.92;37.33;100018.25;5066642;28;20032;-75
2022/06/04 09:56:34;;;;;;;11.77;2.88;;;;;;;21.89;35.13;100026.53;5071967;28;20039;-79
2022/06/04 09:59:31;;;;;;;25.95;3.83;;;;;;;21.79;37.17;100017.63;5069701;28;20045;-76
2022/06/04 10:02:09;;;;;;;9.80;2.85;;;;;;;21.86;37.63;100007.81;5009204;28;20547;-79
2022/06/04 10:04:38;;;;;;;4.82;2.50;;;;;;;22.09;36.44;100005.78;5008828;28;20038;-77
2022/06/04 10:07:12;;;;;;;3.70;2.45;;;;;;;22.19;35.93;100005.19;5009741;28;20422;-75
2022/06/04 10:09:56;;;;;;;11.32;2.80;;;;;;;22.40;35.81;100001.09;5011523;28;20042;-74
2022/06/04 10:15:32;;;;;;;7.75;2.42;;;;;;;22.25;33.36;99998.13;5007966;28;20264;-75
2022/06/04 10:18:14;;;;;;;6.93;2.40;;;;;;;22.04;33.99;100004.09;5008464;28;20092;-76
2022/06/04 10:20:41;;;;;;;11.48;2.72;;;;;;;22.02;35.50;100008.47;5005414;28;20064;-76
2022/06/04 10:23:13;;;;;;;;;;;;;;;22.24;33.81;100002.06;5029202;28;20054;-76
2022/06/04 10:26:32;;;;;;;4.82;2.55;;;;;;;22.54;34.93;99997.72;5011221;28;20512;-75
2022/06/04 10:29:16;;;;;;;6.57;2.60;;;;;;;22.72;34.09;100001.53;4975662;28;20045;-81
2022/06/04 10:32:03;;;;;;;8.02;2.95;;;;;;;22.67;34.85;99994.31;5009280;28;20042;-79
2022/06/04 10:34:36;;;;;;;5.43;3.22;;;;;;;22.79;34.44;99998.84;4998965;28;20033;-75
2022/06/04 10:37:12;;;;;;;14.25;2.97;;;;;;;22.97;36.31;99985.94;5000064;28;20124;-76
2022/06/04 10:39:49;;;;;;;4.32;2.63;;;;;;;23.15;34.74;99975.00;5086303;28;20444;-78
2022/06/04 10:42:56;;;;;;;6.07;2.30;;;;;;;23.03;33.44;99991.19;5078931;28;20397;-77
2022/06/04 10:45:29;;;;;;;5.00;2.50;;;;;;;22.91;32.70;99990.25;5047430;28;20354;-76
2022/06/04 10:48:00;;;;;;;6.82;2.40;;;;;;;22.52;32.73;99973.81;5074649;28;20131;-77
2022/06/04 10:54:15;;;;;;;14.52;4.20;;;;;;;22.66;34.00;99992.69;5075117;28;20409;-75
2022/06/04 10:56:53;;;;;;;12.30;3.63;;;;;;;22.63;33.18;99985.09;5080594;28;20050;-76
2022/06/04 10:59:34;;;;;;;13.77;3.80;;;;;;;22.91;33.91;99989.41;5088835;28;20044;-77
2022/06/04 11:02:55;;;;;;;4.05;2.83;;;;;;;23.11;34.26;99964.97;5092471;28;20036;-76
2022/06/04 11:05:32;;;;;;;6.15;2.75;;;;;;;23.15;33.73;99977.00;5004412;28;20133;-81
2022/06/04 11:08:17;;;;;;;4.30;2.75;;;;;;;23.05;33.63;99975.69;5009845;28;20045;-81
2022/06/04 11:10:52;;;;;;;7.65;2.55;;;;;;;22.88;32.80;99987.38;5070046;28;20040;-75
2022/06/04 11:13:28;;;;;;;8.10;2.53;;;;;;;22.78;34.12;99983.31;5078105;28;20104;-75
2022/06/04 11:16:15;;;;;;;7.68;2.90;;;;;;;22.67;33.71;99982.34;5092479;28;20084;-82
2022/06/04 11:18:58;;;;;;;7.15;2.92;;;;;;;22.62;34.09;99989.06;5077169;28;20114;-76
2022/06/04 11:21:51;;;;;;;3.97;2.83;;;;;;;22.55;35.00;99988.97;5071319;28;20098;-80
2022/06/04 11:24:27;;;;;;;7.80;3.35;;;;;;;22.50;35.01;99984.53;5075219;28;20074;-76
2022/06/04 11:26:59;;;;;;;9.63;3.65;;;;;;;22.46;35.78;99992.03;5073642;28;20413;-81
2022/06/04 11:29:26;;;;;;;8.73;3.60;;;;;;;22.41;35.69;99989.56;5079628;28;20032;-76
2022/06/04 11:32:22;;;;;;;8.43;3.70;;;;;;;22.33;36.25;99984.28;5075080;28;20040;-78
2022/06/04 11:35:13;;;;;;;10.70;4.18;;;;;;;22.28;36.23;99983.44;5084025;28;20036;-76
2022/06/04 11:38:19;;;;;;;17.88;4.65;;;;;;;22.29;35.76;99981.44;5065420;28;20052;-75
2022/06/04 11:41:07;;;;;;;11.30;3.53;;;;;;;22.25;36.64;99986.97;5069653;28;20044;-75
2022/06/04 11:44:01;;;;;;;14.65;3.45;;;;;;;22.16;35.04;99980.06;5077721;28;20040;-75
2022/06/04 11:47:02;;;;;;;13.32;3.45;;;;;;;22.16;35.53;99978.09;5085034;28;20070;-76
2022/06/04 11:49:38;;;;;;;7.95;3.53;;;;;;;22.22;35.25;99975.78;5073342;28;20041;-79
2022/06/04 11:52:26;;;;;;;8.32;3.40;;;;;;;22.36;36.20;99975.97;5069004;28;20044;-76
2022/06/04 11:55:14;;;;;;;7.60;3.53;;;;;;;22.25;34.43;99975.84;5073039;28;20049;-76
2022/06/04 11:57:55;;;;;;;7.13;3.00;;;;;;;22.31;36.16;99972.72;5074079;28;20062;-76
2022/06/04 12:00:40;;;;;;;19.90;4.00;;;;;;;22.86;34.45;99971.06;5076650;28;20048;-77
2022/06/04 12:03:31;;;;;;;4.47;2.85;;;;;;;22.80;33.68;99960.63;5092167;28;20457;-76
2022/06/04 12:06:07;;;;;;;12.05;3.75;;;;;;;22.63;35.22;99962.00;5081363;28;20494;-75
2022/06/04 12:08:43;;;;;;;4.70;2.92;;;;;;;22.66;34.48;99961.25;5074065;28;20041;-80
2022/06/04 12:11:33;;;;;;;8.52;3.20;;;;;;;22.67;35.96;99954.50;5073682;28;20420;-77